Time;durP1;ratioP1;P1;durP2;ratioP2;P2;SDS_P1;SDS_P2;PMS_P1;PMS_P2;Temp;Humidity;BMP_temperature;BMP_pressure;BME280_temperature;BME280_humidity;BME280_pressure;Samples;Min_cycle;Max_cycle;Signal;HPM_P1;HPM_P2
2021/10/22 00:01:43;;;;;;;51.97;34.90;;;;;;;9.05;75.21;100260.56;5053684;28;20043;-19
2021/10/22 00:04:09;;;;;;;52.00;33.55;;;;;;;8.67;77.55;100285.06;5071777;28;20400;-19
2021/10/22 00:06:34;;;;;;;46.58;31.77;;;;;;;8.48;78.08;100291.97;5071612;28;20043;-19
2021/10/22 00:09:00;;;;;;;48.47;32.55;;;;;;;8.48;77.77;100265.38;5071644;28;20024;-19
2021/10/22 00:11:25;;;;;;;45.10;32.15;;;;;;;9.00;76.16;100284.31;5071623;28;20029;-20
2021/10/22 00:13:51;;;;;;;46.10;30.65;;;;;;;8.99;75.22;100285.31;5071487;28;20477;-20
2021/10/22 00:16:17;;;;;;;44.30;29.50;;;;;;;8.41;77.13;100268.00;5071089;28;20040;-19
2021/10/22 00:18:42;;;;;;;47.40;30.88;;;;;;;8.87;75.69;100278.94;5071776;28;20524;-21
2021/10/22 00:21:08;;;;;;;41.53;28.75;;;;;;;9.00;74.54;100273.66;5070930;28;20040;-19
2021/10/22 00:23:33;;;;;;;40.30;28.67;;;;;;;8.94;75.02;100271.81;5071220;28;20033;-20
2021/10/22 00:25:59;;;;;;;41.25;27.10;;;;;;;8.64;75.52;100280.13;5053213;28;20036;-20
2021/10/22 00:28:24;;;;;;;38.17;28.13;;;;;;;7.97;77.58;100285.19;5053132;28;20031;-19
2021/10/22 00:30:50;;;;;;;41.95;27.75;;;;;;;8.41;76.47;100281.28;5070502;28;20105;-20
2021/10/22 00:33:15;;;;;;;41.45;28.88;;;;;;;8.19;77.46;100288.56;5053348;28;20024;-19
2021/10/22 00:35:41;;;;;;;48.25;31.60;;;;;;;8.30;77.20;100278.38;5071010;28;20028;-21
2021/10/22 00:38:07;;;;;;;44.15;28.23;;;;;;;8.37;75.84;100268.56;5070953;28;20021;-20
2021/10/22 00:40:32;;;;;;;42.10;29.00;;;;;;;8.85;74.31;100287.16;5071071;28;20035;-20
2021/10/22 00:42:58;;;;;;;42.72;28.35;;;;;;;9.04;72.77;100281.03;5052718;28;20378;-20
2021/10/22 00:45:23;;;;;;;40.38;27.25;;;;;;;8.97;73.36;100269.56;5070934;28;20025;-20
2021/10/22 00:47:50;;;;;;;41.67;26.83;;;;;;;8.62;74.58;100282.16;5071306;28;20032;-20
2021/10/22 00:50:15;;;;;;;41.03;27.83;;;;;;;8.89;73.13;100275.09;5052680;28;20039;-20
2021/10/22 00:52:41;;;;;;;38.78;27.15;;;;;;;8.15;75.64;100279.34;5070819;28;20029;-20
2021/10/22 00:55:11;;;;;;;38.85;25.90;;;;;;;8.32;75.27;100279.81;5036151;28;20102;-20
2021/10/22 00:57:37;;;;;;;40.80;27.58;;;;;;;8.88;72.98;100285.91;5052889;28;20033;-20
2021/10/22 01:00:02;;;;;;;41.85;28.00;;;;;;;8.74;73.19;100280.56;5052604;28;20036;-20
2021/10/22 01:02:28;;;;;;;43.47;28.42;;;;;;;8.91;72.73;100274.88;5053227;28;20021;-19
2021/10/22 01:04:53;;;;;;;43.83;29.95;;;;;;;9.05;71.57;100271.19;5052480;28;20040;-20
2021/10/22 01:07:19;;;;;;;42.70;27.27;;;;;;;8.68;73.08;100264.59;5070433;28;20028;-19
2021/10/22 01:09:44;;;;;;;40.50;29.67;;;;;;;8.48;74.35;100260.06;5035980;28;20036;-19
2021/10/22 01:12:10;;;;;;;43.80;29.15;;;;;;;8.71;73.78;100267.69;5052361;28;20032;-19
2021/10/22 01:14:37;;;;;;;42.35;28.85;;;;;;;9.10;73.09;100274.06;5070431;28;20553;-20
2021/10/22 01:17:03;;;;;;;42.22;27.48;;;;;;;8.36;74.17;100278.41;5052088;28;20029;-19
2021/10/22 01:19:29;;;;;;;41.45;26.75;;;;;;;7.75;76.55;100271.16;5070354;28;20408;-20
2021/10/22 01:21:54;;;;;;;39.15;27.10;;;;;;;7.44;77.48;100266.25;5051897;28;20029;-21
2021/10/22 01:24:20;;;;;;;32.38;21.77;;;;;;;7.25;78.18;100275.69;5070295;28;20041;-19
2021/10/22 01:26:46;;;;;;;34.20;24.13;;;;;;;7.98;75.00;100273.53;5051104;28;20451;-19
2021/10/22 01:29:11;;;;;;;42.47;26.83;;;;;;;8.51;72.85;100277.44;5070049;28;20115;-20
2021/10/22 01:31:37;;;;;;;42.65;28.52;;;;;;;8.35;73.88;100282.06;5070179;28;20055;-20
2021/10/22 01:34:03;;;;;;;38.33;26.48;;;;;;;8.59;72.65;100277.28;5069731;28;20028;-20
2021/10/22 01:36:29;;;;;;;38.22;26.38;;;;;;;8.55;72.28;100271.53;5069934;28;20024;-20
2021/10/22 01:38:55;;;;;;;39.03;27.08;;;;;;;8.53;72.33;100275.41;5051796;28;20047;-19
2021/10/22 01:41:21;;;;;;;37.95;25.85;;;;;;;7.99;74.84;100272.50;5069719;28;20158;-19
2021/10/22 01:43:49;;;;;;;34.65;25.17;;;;;;;7.86;75.69;100272.44;5069900;28;20040;-25
2021/10/22 01:46:14;;;;;;;35.10;24.88;;;;;;;7.53;76.68;100277.53;5052224;28;20147;-21
2021/10/22 01:48:40;;;;;;;39.95;27.20;;;;;;;8.22;74.35;100274.03;5051919;28;20829;-19
2021/10/22 01:51:06;;;;;;;42.25;27.55;;;;;;;8.09;74.31;100271.31;5069375;28;20145;-19
2021/10/22 01:53:31;;;;;;;41.25;26.85;;;;;;;8.41;73.53;100267.19;5069771;28;20427;-20
2021/10/22 01:55:57;;;;;;;40.15;28.13;;;;;;;8.22;73.91;100266.88;5069418;28;20480;-20
2021/10/22 01:58:22;;;;;;;38.38;26.15;;;;;;;7.63;76.95;100286.78;5034955;28;20053;-20
2021/10/22 02:00:48;;;;;;;32.25;23.15;;;;;;;7.07;77.69;100277.97;5069082;28;20458;-19
2021/10/22 02:03:14;;;;;;;33.33;23.27;;;;;;;7.04;77.49;100273.88;5035118;28;20064;-19
2021/10/22 02:05:39;;;;;;;40.50;26.27;;;;;;;7.13;77.60;100283.38;5069474;28;20041;-19
2021/10/22 02:08:05;;;;;;;49.40;28.80;;;;;;;7.52;76.22;100281.19;5051426;28;20027;-19
2021/10/22 02:10:30;;;;;;;50.47;28.38;;;;;;;7.60;75.77;100284.53;5069316;28;20044;-19
2021/10/22 02:12:56;;;;;;;90.45;30.95;;;;;;;7.89;75.01;100277.38;5068996;28;20103;-19
2021/10/22 02:15:22;;;;;;;78.47;27.58;;;;;;;7.60;75.58;100273.94;5069133;28;20037;-20
2021/10/22 02:17:47;;;;;;;91.13;28.48;;;;;;;7.10;78.36;100289.03;5051266;28;20033;-20
2021/10/22 02:20:13;;;;;;;68.03;26.30;;;;;;;7.61;76.80;100285.34;5051130;28;20098;-20
2021/10/22 02:22:38;;;;;;;50.17;24.67;;;;;;;7.46;76.69;100296.09;5051045;28;20115;-20
2021/10/22 02:25:05;;;;;;;50.28;24.92;;;;;;;7.28;76.93;100296.53;5051181;28;20059;-20
2021/10/22 02:27:30;;;;;;;164.18;31.02;;;;;;;7.48;76.93;100301.16;5069325;28;20041;-19
2021/10/22 02:29:56;;;;;;;53.63;26.58;;;;;;;7.95;74.98;100315.59;5068942;28;20511;-20
2021/10/22 02:32:21;;;;;;;95.38;27.13;;;;;;;7.39;76.22;100295.19;5050828;28;20127;-20
2021/10/22 02:34:46;;;;;;;67.85;26.65;;;;;;;7.46;75.90;100309.34;5051195;28;20039;-20
2021/10/22 02:37:12;;;;;;;138.25;28.65;;;;;;;7.43;76.41;100312.38;5068826;28;20040;-20
2021/10/22 02:39:39;;;;;;;63.00;25.25;;;;;;;7.68;74.91;100311.94;5068518;28;20578;-20
2021/10/22 02:42:04;;;;;;;163.45;30.90;;;;;;;7.60;75.83;100315.56;5069034;28;20033;-20
2021/10/22 02:44:30;;;;;;;148.63;30.33;;;;;;;7.85;75.66;100327.38;5051010;28;20035;-20
2021/10/22 02:46:55;;;;;;;124.22;28.60;;;;;;;7.63;75.93;100321.31;5068367;28;20028;-20
2021/10/22 02:49:21;;;;;;;97.97;28.10;;;;;;;6.94;79.10;100337.84;5068713;28;20024;-20
2021/10/22 02:51:47;;;;;;;131.02;30.33;;;;;;;7.11;78.19;100345.53;5050833;28;20036;-20
2021/10/22 02:54:12;;;;;;;160.85;29.92;;;;;;;7.32;77.36;100336.78;5068758;28;20032;-19
2021/10/22 02:56:38;;;;;;;51.53;24.85;;;;;;;6.89;77.75;100340.25;5034200;28;20036;-20
2021/10/22 02:59:03;;;;;;;67.75;25.35;;;;;;;7.15;78.04;100352.97;5068354;28;20054;-20
2021/10/22 03:01:29;;;;;;;75.60;25.83;;;;;;;7.37;77.40;100339.66;5068853;28;20455;-21
2021/10/22 03:03:54;;;;;;;44.75;24.52;;;;;;;7.52;76.19;100340.41;5069157;28;20040;-20
2021/10/22 03:06:20;;;;;;;75.05;27.17;;;;;;;7.27;77.44;100344.47;5050694;28;20036;-20
2021/10/22 03:08:45;;;;;;;123.60;29.95;;;;;;;6.99;78.33;100346.06;5050455;28;20028;-22
2021/10/22 03:11:11;;;;;;;110.47;28.30;;;;;;;7.21;77.79;100338.94;5050588;28;20032;-20
2021/10/22 03:13:37;;;;;;;59.53;27.67;;;;;;;7.75;75.97;100363.25;5050548;28;20028;-20
2021/10/22 03:16:02;;;;;;;45.03;25.77;;;;;;;7.61;75.77;100354.38;5068271;28;20400;-20
2021/10/22 03:18:28;;;;;;;45.17;25.65;;;;;;;7.14;78.04;100364.56;5068432;28;20064;-19
2021/10/22 03:20:53;;;;;;;47.72;26.08;;;;;;;6.93;78.52;100353.94;5068224;28;20033;-20
2021/10/22 03:23:19;;;;;;;55.15;26.73;;;;;;;6.44;81.60;100363.38;5068314;28;20103;-28
2021/10/22 03:25:44;;;;;;;145.88;58.60;;;;;;;6.37;82.41;100367.75;5068454;28;20036;-20
2021/10/22 03:28:10;;;;;;;98.47;34.28;;;;;;;6.56;82.44;100356.59;5050365;28;20028;-20
2021/10/22 03:30:36;;;;;;;84.65;29.77;;;;;;;6.43;82.82;100351.94;5067864;28;20028;-20
2021/10/22 03:33:02;;;;;;;92.13;28.25;;;;;;;6.20;83.09;100341.44;5050288;28;20471;-20
2021/10/22 03:35:28;;;;;;;109.30;40.95;;;;;;;6.26;85.05;100371.69;5068491;28;20118;-20
2021/10/22 03:37:53;;;;;;;63.63;25.90;;;;;;;6.12;84.72;100364.56;5067953;28;20021;-21
2021/10/22 03:40:19;;;;;;;74.72;26.55;;;;;;;6.17;84.56;100368.31;5067177;28;20051;-20
2021/10/22 03:42:44;;;;;;;90.00;28.13;;;;;;;6.24;84.72;100373.69;5068335;28;20499;-20
2021/10/22 03:45:10;;;;;;;88.30;29.90;;;;;;;6.23;85.31;100366.75;5067943;28;20491;-21
2021/10/22 03:47:35;;;;;;;62.47;27.52;;;;;;;6.34;84.56;100376.88;5050307;28;20063;-19
2021/10/22 03:50:01;;;;;;;114.53;42.42;;;;;;;6.31;85.96;100369.28;5034348;28;20478;-20
2021/10/22 03:52:26;;;;;;;141.35;38.53;;;;;;;6.68;84.46;100372.00;5072037;28;20074;-20
2021/10/22 03:54:52;;;;;;;145.20;51.10;;;;;;;7.11;81.84;100383.53;5071769;28;20157;-19
2021/10/22 03:57:17;;;;;;;87.18;35.97;;;;;;;7.34;80.97;100374.56;5071662;28;20051;-20
2021/10/22 03:59:43;;;;;;;115.30;37.45;;;;;;;7.64;79.43;100378.69;5071621;28;20116;-19
2021/10/22 04:02:08;;;;;;;130.75;39.60;;;;;;;7.88;78.01;100373.97;5071655;28;20470;-20
2021/10/22 04:04:34;;;;;;;88.82;39.38;;;;;;;8.11;77.58;100370.22;5054071;28;20028;-20
2021/10/22 04:07:01;;;;;;;88.55;35.92;;;;;;;7.34;80.97;100393.13;5071414;28;20484;-20
2021/10/22 04:09:30;;;;;;;126.20;39.92;;;;;;;7.56;80.11;100373.53;5071413;28;20067;-20
2021/10/22 04:11:56;;;;;;;77.93;35.38;;;;;;;7.07;82.14;100384.91;5053718;28;20468;-19
2021/10/22 04:14:21;;;;;;;115.93;35.47;;;;;;;7.71;79.91;100385.91;5071390;28;20032;-19
2021/10/22 04:16:47;;;;;;;79.65;35.33;;;;;;;7.91;77.62;100370.94;5070899;28;20082;-20
2021/10/22 04:19:12;;;;;;;100.40;33.47;;;;;;;7.11;81.06;100385.31;5071318;28;20024;-20
2021/10/22 04:21:38;;;;;;;88.47;34.30;;;;;;;6.68;82.66;100351.66;5071326;28;20581;-21
2021/10/22 04:24:03;;;;;;;72.35;32.95;;;;;;;6.74;81.99;100355.34;5071504;28;20035;-20
2021/10/22 04:26:29;;;;;;;101.05;44.05;;;;;;;6.77;82.70;100374.38;5071204;28;20024;-20
2021/10/22 04:28:54;;;;;;;69.47;41.17;;;;;;;7.09;81.71;100376.72;5070897;28;20028;-19
2021/10/22 04:31:20;;;;;;;96.35;45.72;;;;;;;7.36;79.92;100368.03;5071335;28;20516;-20
2021/10/22 04:33:45;;;;;;;158.23;47.13;;;;;;;7.64;79.30;100370.75;5071194;28;20032;-20
2021/10/22 04:36:12;;;;;;;129.10;45.55;;;;;;;7.01;81.55;100378.50;5070938;28;20045;-20
2021/10/22 04:41:22;;;;;;;125.75;44.60;;;;;;;7.39;80.82;100393.38;5071215;28;20047;-19
2021/10/22 04:43:51;;;;;;;92.10;40.65;;;;;;;6.81;82.23;100399.50;5052942;28;20029;-19
2021/10/22 04:46:17;;;;;;;115.07;35.13;;;;;;;6.32;84.28;100378.91;5070813;28;20029;-20
2021/10/22 04:48:44;;;;;;;78.38;34.63;;;;;;;7.05;80.73;100397.53;5052860;28;20020;-20
2021/10/22 04:51:10;;;;;;;79.38;46.55;;;;;;;7.37;78.74;100371.50;5070709;28;20036;-20
2021/10/22 04:53:35;;;;;;;82.85;43.40;;;;;;;7.23;79.54;100395.28;5070840;28;20067;-20
2021/10/22 04:56:02;;;;;;;74.82;40.30;;;;;;;7.02;80.93;100403.19;5070701;28;20039;-20
2021/10/22 04:58:27;;;;;;;65.97;36.25;;;;;;;7.38;78.61;100407.66;5070613;28;20112;-20
2021/10/22 05:00:53;;;;;;;65.43;35.08;;;;;;;7.39;78.55;100403.97;5070409;28;20032;-20
2021/10/22 05:03:19;;;;;;;70.22;37.17;;;;;;;7.62;77.59;100387.84;5070618;28;20024;-20
2021/10/22 05:05:44;;;;;;;109.13;34.38;;;;;;;7.49;77.89;100399.19;5070848;28;20068;-20
2021/10/22 05:08:10;;;;;;;76.97;32.50;;;;;;;7.02;80.34;100397.88;5070762;28;20052;-20
2021/10/22 05:10:35;;;;;;;108.22;35.05;;;;;;;7.15;81.27;100408.66;5052323;28;20051;-20
2021/10/22 05:13:00;;;;;;;82.10;33.33;;;;;;;7.17;81.58;100414.59;5070075;28;20492;-20
2021/10/22 05:15:26;;;;;;;144.02;34.55;;;;;;;6.98;82.26;100412.53;5070356;28;20040;-20
2021/10/22 05:17:52;;;;;;;56.15;26.63;;;;;;;6.91;80.38;100403.69;5070241;28;20036;-19
2021/10/22 05:20:17;;;;;;;109.22;29.05;;;;;;;6.84;81.45;100419.50;5070120;28;20032;-20
2021/10/22 05:22:42;;;;;;;108.40;31.17;;;;;;;6.87;81.78;100415.69;5070065;28;20032;-20
2021/10/22 05:25:10;;;;;;;64.25;29.23;;;;;;;7.13;79.53;100421.28;5069739;28;20035;-20
2021/10/22 05:27:35;;;;;;;77.85;31.05;;;;;;;7.07;80.55;100427.34;5070125;28;20020;-20
2021/10/22 05:30:02;;;;;;;67.43;31.25;;;;;;;7.32;79.88;100432.28;5052578;28;20078;-19
2021/10/22 05:32:28;;;;;;;61.58;30.20;;;;;;;7.57;79.51;100433.53;5052154;28;20094;-20
2021/10/22 05:34:53;;;;;;;98.13;27.23;;;;;;;6.93;79.10;100423.69;5069653;28;20028;-20
2021/10/22 05:37:20;;;;;;;55.65;26.98;;;;;;;7.22;79.68;100448.50;5069999;28;20031;-20
2021/10/22 05:39:46;;;;;;;69.18;32.45;;;;;;;7.24;79.42;100449.97;5069807;28;20107;-19
2021/10/22 05:42:11;;;;;;;80.57;38.80;;;;;;;7.20;79.96;100448.69;5070029;28;20518;-20
2021/10/22 05:44:37;;;;;;;66.55;34.95;;;;;;;7.84;78.32;100447.06;5069930;28;20024;-19
2021/10/22 05:47:02;;;;;;;104.55;30.67;;;;;;;7.67;78.89;100449.16;5051491;28;20040;-23
2021/10/22 05:49:28;;;;;;;73.00;32.45;;;;;;;7.89;78.86;100457.94;5070157;28;20032;-19
2021/10/22 05:51:53;;;;;;;81.05;26.63;;;;;;;7.37;79.79;100441.31;5069766;28;20761;-20
2021/10/22 05:54:19;;;;;;;93.07;32.40;;;;;;;7.97;79.39;100449.84;5069666;28;20028;-20
2021/10/22 05:56:45;;;;;;;52.58;26.33;;;;;;;8.23;77.78;100464.31;5069156;28;20085;-21
2021/10/22 05:59:10;;;;;;;53.17;27.30;;;;;;;8.17;77.92;100454.47;5069272;28;20029;-20
2021/10/22 06:01:36;;;;;;;55.33;29.20;;;;;;;8.34;77.55;100466.44;5069314;28;20040;-20
2021/10/22 06:04:03;;;;;;;49.00;29.48;;;;;;;8.57;76.74;100462.72;5069343;28;20041;-19
2021/10/22 06:06:29;;;;;;;46.80;25.90;;;;;;;8.39;77.68;100463.19;5069250;28;20028;-19
2021/10/22 06:08:55;;;;;;;43.15;25.45;;;;;;;8.09;79.18;100486.47;5068816;28;20055;-20
2021/10/22 06:11:21;;;;;;;112.28;53.88;;;;;;;8.17;79.29;100481.03;5069382;28;20032;-19
2021/10/22 06:13:46;;;;;;;39.45;26.42;;;;;;;8.72;77.79;100483.88;5068692;28;20043;-20
2021/10/22 06:16:13;;;;;;;62.55;27.00;;;;;;;8.54;77.68;100460.44;5069029;28;20020;-20
2021/10/22 06:18:46;;;;;;;52.10;31.63;;;;;;;8.71;78.02;100482.25;5069037;28;20043;-19
2021/10/22 06:24:04;;;;;;;52.28;28.60;;;;;;;8.60;78.85;100502.19;5039869;28;20048;-20
2021/10/22 06:26:34;;;;;;;43.60;26.52;;;;;;;8.64;79.76;100503.44;5069030;28;20020;-20
2021/10/22 06:29:00;;;;;;;53.45;27.20;;;;;;;8.56;79.02;100485.00;5051319;28;20484;-20
2021/10/22 06:31:26;;;;;;;49.97;28.42;;;;;;;9.04;77.92;100509.00;5068167;28;20068;-20
2021/10/22 06:33:52;;;;;;;96.65;51.50;;;;;;;9.33;76.49;100496.41;5068397;28;20420;-20
2021/10/22 06:36:17;;;;;;;96.80;48.28;;;;;;;9.25;77.29;100510.72;5068838;28;20102;-20
2021/10/22 06:38:43;;;;;;;46.15;28.70;;;;;;;8.50;80.55;100507.03;5068750;28;20047;-20
2021/10/22 06:41:08;;;;;;;44.47;28.05;;;;;;;8.49;81.32;100522.19;5068519;28;20024;-20
2021/10/22 06:43:38;;;;;;;37.38;24.35;;;;;;;8.82;80.77;100510.94;5068826;28;20480;-20
2021/10/22 06:46:03;;;;;;;34.13;23.98;;;;;;;8.74;80.15;100493.28;5068825;28;20032;-20
2021/10/22 06:48:29;;;;;;;31.17;21.27;;;;;;;8.70;80.63;100486.72;5069141;28;20043;-20
2021/10/22 06:50:55;;;;;;;30.00;21.10;;;;;;;8.53;82.37;100509.31;5068585;28;20037;-20
2021/10/22 06:53:20;;;;;;;31.60;22.20;;;;;;;9.32;81.26;100516.91;5068874;28;20377;-19
2021/10/22 06:55:46;;;;;;;31.48;21.85;;;;;;;9.08;80.47;100520.88;5068804;28;20032;-20
2021/10/22 06:58:11;;;;;;;30.80;21.35;;;;;;;8.77;83.06;100492.91;5068638;28;20404;-19
2021/10/22 07:00:37;;;;;;;29.90;22.10;;;;;;;9.08;83.87;100504.13;5068646;28;20087;-20
2021/10/22 07:03:03;;;;;;;31.30;22.38;;;;;;;9.15;83.62;100505.75;5068379;28;20033;-20
2021/10/22 07:08:09;;;;;;;31.45;22.83;;;;;;;9.60;82.07;100516.78;5068943;28;20768;-19
2021/10/22 07:10:34;;;;;;;32.58;23.55;;;;;;;10.14;81.63;100527.50;5068721;28;20036;-20
2021/10/22 07:13:00;;;;;;;36.17;25.85;;;;;;;10.25;80.86;100537.53;5068403;28;20052;-19
2021/10/22 07:15:26;;;;;;;38.15;25.98;;;;;;;10.42;80.04;100525.47;5068542;28;20506;-19
2021/10/22 07:17:59;;;;;;;129.32;69.80;;;;;;;10.70;79.29;100524.41;5068238;28;20115;-20
2021/10/22 07:20:28;;;;;;;277.52;148.20;;;;;;;10.50;81.21;100503.13;5068409;28;20020;-20
2021/10/22 07:23:01;;;;;;;36.65;25.85;;;;;;;10.22;83.49;100519.31;5068378;28;20811;-19
2021/10/22 07:25:27;;;;;;;115.65;64.63;;;;;;;10.35;81.69;100523.84;5069902;28;20028;-19
2021/10/22 07:27:52;;;;;;;103.88;59.50;;;;;;;10.81;81.49;100515.78;5072595;28;20097;-19
2021/10/22 07:30:19;;;;;;;43.47;30.00;;;;;;;11.37;77.57;100525.00;5072340;28;20032;-20
2021/10/22 07:32:47;;;;;;;43.95;30.33;;;;;;;11.26;78.26;100509.66;5072401;28;20836;-20
2021/10/22 07:35:12;;;;;;;45.50;32.50;;;;;;;11.82;77.74;100522.28;5072252;28;20150;-20
2021/10/22 07:37:37;;;;;;;43.50;29.67;;;;;;;11.81;76.48;100517.16;5072319;28;20773;-21
2021/10/22 07:40:04;;;;;;;45.17;29.85;;;;;;;11.74;77.38;100519.88;5054428;28;20040;-20
2021/10/22 07:42:29;;;;;;;47.17;31.33;;;;;;;11.81;78.08;100517.16;5072338;28;20396;-21
2021/10/22 07:44:59;;;;;;;47.35;31.85;;;;;;;12.01;77.37;100504.53;5071607;28;20028;-19
2021/10/22 07:47:25;;;;;;;44.35;30.83;;;;;;;12.56;76.59;100527.88;5072487;28;20032;-20
2021/10/22 07:49:51;;;;;;;42.47;29.73;;;;;;;12.42;75.84;100505.81;5071997;28;20097;-19
2021/10/22 07:52:18;;;;;;;47.88;32.58;;;;;;;12.61;76.84;100513.88;5072141;28;20553;-20
2021/10/22 07:54:44;;;;;;;40.38;29.52;;;;;;;12.99;74.13;100515.50;5071833;28;20036;-20
2021/10/22 07:57:10;;;;;;;39.47;28.83;;;;;;;13.37;73.38;100517.16;5071718;28;20035;-20
2021/10/22 07:59:36;;;;;;;38.55;28.60;;;;;;;13.42;73.33;100503.88;5071863;28;20032;-20
2021/10/22 08:02:01;;;;;;;41.70;29.40;;;;;;;14.15;70.20;100518.06;5071714;28;20480;-20
2021/10/22 08:04:27;;;;;;;40.13;26.90;;;;;;;14.18;71.51;100518.44;5071622;28;20098;-20
2021/10/22 08:06:52;;;;;;;38.55;27.67;;;;;;;14.16;72.42;100519.69;5071238;28;20035;-20
2021/10/22 08:09:18;;;;;;;32.97;24.63;;;;;;;14.15;69.31;100507.34;5071716;28;20028;-19
2021/10/22 08:11:43;;;;;;;36.78;27.48;;;;;;;14.46;69.74;100508.88;5071611;28;20024;-20
2021/10/22 08:14:09;;;;;;;36.42;26.85;;;;;;;14.90;66.91;100503.97;5053527;28;20098;-20
2021/10/22 08:16:35;;;;;;;32.05;23.95;;;;;;;14.64;65.68;100487.28;5071436;28;20043;-19
2021/10/22 08:19:01;;;;;;;32.85;22.30;;;;;;;15.01;67.38;100510.34;5071087;28;20504;-19
2021/10/22 08:24:01;;;;;;;28.50;19.60;;;;;;;15.35;61.15;100489.81;5071483;28;20037;-19
2021/10/22 08:26:26;;;;;;;26.92;20.83;;;;;;;15.29;63.79;100490.75;5071009;28;20495;-19
2021/10/22 08:28:51;;;;;;;26.95;20.17;;;;;;;15.73;63.24;100511.75;5070996;28;20032;-19
2021/10/22 08:31:17;;;;;;;27.02;18.00;;;;;;;15.93;60.57;100512.09;5071404;28;20476;-19
2021/10/22 08:33:42;;;;;;;20.05;14.75;;;;;;;15.85;57.48;100499.03;5071072;28;20056;-20
2021/10/22 08:36:09;;;;;;;18.05;13.70;;;;;;;15.97;55.58;100497.09;5070551;28;20090;-20
2021/10/22 08:38:35;;;;;;;20.00;13.68;;;;;;;16.22;57.34;100495.88;5053112;28;20025;-20
2021/10/22 08:41:00;;;;;;;23.38;14.75;;;;;;;16.66;58.44;100483.31;5070537;28;20870;-20
2021/10/22 08:43:27;;;;;;;22.23;15.18;;;;;;;16.83;56.09;100491.38;5036744;28;20032;-20
2021/10/22 08:45:53;;;;;;;20.05;14.18;;;;;;;17.05;55.21;100490.56;5071146;28;20067;-20
2021/10/22 08:48:19;;;;;;;20.92;15.25;;;;;;;17.07;56.27;100483.06;5071159;28;20810;-20
2021/10/22 08:50:44;;;;;;;19.13;14.73;;;;;;;16.93;56.69;100481.81;5070669;28;20037;-20
2021/10/22 08:53:10;;;;;;;20.90;16.00;;;;;;;17.21;57.26;100478.91;5070492;28;20490;-20
2021/10/22 08:55:35;;;;;;;19.30;14.95;;;;;;;16.89;57.00;100472.59;5052837;28;20039;-20
2021/10/22 08:58:02;;;;;;;19.55;13.43;;;;;;;17.01;55.61;100487.56;5070889;28;20086;-20
2021/10/22 09:00:28;;;;;;;22.10;14.57;;;;;;;17.25;55.02;100480.03;5070805;28;20025;-19
2021/10/22 09:02:54;;;;;;;23.35;15.82;;;;;;;16.94;55.39;100467.25;5069682;28;20044;-20
2021/10/22 09:05:24;;;;;;;19.83;15.73;;;;;;;17.39;53.78;100474.25;5035455;28;20493;-19
2021/10/22 09:07:53;;;;;;;21.30;14.68;;;;;;;17.29;56.87;100466.06;5052673;28;20119;-19
2021/10/22 09:10:20;;;;;;;18.02;13.57;;;;;;;16.85;54.36;100485.75;5070631;28;20040;-20
2021/10/22 09:12:52;;;;;;;18.40;13.60;;;;;;;17.22;52.95;100480.56;5070219;28;20107;-19
2021/10/22 09:15:22;;;;;;;20.67;14.27;;;;;;;17.31;56.40;100466.63;5070341;28;20025;-20
2021/10/22 09:17:47;;;;;;;19.92;13.82;;;;;;;17.55;54.66;100461.72;5070223;28;20484;-19
2021/10/22 09:20:14;;;;;;;19.38;14.38;;;;;;;17.80;54.76;100450.34;5070140;28;20024;-20
2021/10/22 09:22:41;;;;;;;17.48;13.25;;;;;;;17.97;52.90;100464.53;5069931;28;20119;-20
2021/10/22 09:25:10;;;;;;;20.60;14.90;;;;;;;18.19;53.91;100460.94;5070109;28;20028;-20
2021/10/22 09:27:48;;;;;;;22.02;14.48;;;;;;;17.99;53.17;100470.50;5070156;28;20037;-20
2021/10/22 09:30:22;;;;;;;17.67;13.13;;;;;;;18.25;50.81;100466.09;5070147;28;20032;-20
2021/10/22 09:32:48;;;;;;;16.10;12.82;;;;;;;18.24;51.63;100456.34;5069999;28;20086;-20
2021/10/22 09:35:16;;;;;;;18.48;13.93;;;;;;;17.80;52.32;100453.84;5069944;28;20480;-20
2021/10/22 09:37:42;;;;;;;18.57;13.10;;;;;;;17.89;53.15;100461.50;5052262;28;20484;-19
2021/10/22 09:40:08;;;;;;;18.33;13.85;;;;;;;18.02;52.39;100459.19;5069883;28;20322;-20
2021/10/22 09:42:34;;;;;;;17.25;13.75;;;;;;;18.57;49.19;100469.78;5070043;28;20879;-19
2021/10/22 09:44:59;;;;;;;17.15;13.82;;;;;;;19.34;51.10;100467.41;5069932;28;20040;-20
2021/10/22 09:47:25;;;;;;;18.88;13.27;;;;;;;19.52;47.14;100466.88;5051479;28;20064;-20
2021/10/22 09:50:05;;;;;;;19.23;13.63;;;;;;;19.36;48.31;100463.34;5069354;28;20561;-19
2021/10/22 09:52:30;;;;;;;16.45;13.15;;;;;;;19.32;46.64;100456.84;5052092;28;20035;-20
2021/10/22 09:55:10;;;;;;;20.02;14.55;;;;;;;19.30;48.29;100466.31;5069080;28;20032;-20
2021/10/22 09:57:37;;;;;;;17.58;13.38;;;;;;;19.24;48.32;100469.00;5069747;28;20031;-19
2021/10/22 10:00:11;;;;;;;17.17;13.32;;;;;;;19.01;47.78;100461.38;5069539;28;20055;-20
2021/10/22 10:02:40;;;;;;;16.95;13.13;;;;;;;19.16;46.55;100439.78;5069453;28;20029;-20
2021/10/22 10:05:09;;;;;;;17.02;13.75;;;;;;;19.85;48.10;100448.53;5069236;28;20032;-19
2021/10/22 10:07:45;;;;;;;17.30;13.38;;;;;;;19.67;47.43;100442.53;5069363;28;20036;-19
2021/10/22 10:10:11;;;;;;;18.13;13.55;;;;;;;19.83;47.55;100456.13;5069537;28;20454;-19
2021/10/22 10:12:37;;;;;;;19.75;14.07;;;;;;;20.04;48.45;100452.31;5069370;28;20101;-20
2021/10/22 10:15:03;;;;;;;19.92;13.98;;;;;;;20.18;47.65;100444.44;5069075;28;20439;-19
2021/10/22 10:17:29;;;;;;;17.23;13.20;;;;;;;20.51;47.42;100446.78;5069127;28;20033;-20
2021/10/22 10:19:54;;;;;;;16.83;13.13;;;;;;;20.27;46.53;100442.00;5068983;28;20017;-19
2021/10/22 10:22:21;;;;;;;21.50;14.32;;;;;;;20.71;46.87;100443.25;5034530;28;20028;-20
2021/10/22 10:24:51;;;;;;;17.90;12.25;;;;;;;20.57;43.96;100421.31;5034649;28;20033;-19
2021/10/22 10:27:24;;;;;;;16.55;12.07;;;;;;;20.73;43.22;100431.03;5068938;28;20031;-19
2021/10/22 10:30:00;;;;;;;16.33;11.95;;;;;;;20.76;43.25;100432.38;5069170;28;20036;-20
2021/10/22 10:32:28;;;;;;;13.90;10.95;;;;;;;20.73;42.23;100425.59;5068781;28;20474;-19
2021/10/22 10:35:00;;;;;;;13.73;10.93;;;;;;;21.03;42.55;100423.84;5069101;28;20035;-19
2021/10/22 10:37:28;;;;;;;14.25;11.18;;;;;;;21.70;41.07;100428.81;5068899;28;20556;-20
2021/10/22 10:39:59;;;;;;;14.93;11.50;;;;;;;22.10;42.69;100421.41;5068786;28;20032;-19
2021/10/22 10:42:32;;;;;;;16.55;12.55;;;;;;;21.99;41.80;100418.78;5051978;28;20033;-20
2021/10/22 10:44:58;;;;;;;14.02;11.27;;;;;;;21.77;40.81;100416.53;5068823;28;20029;-19
2021/10/22 10:47:26;;;;;;;12.63;9.60;;;;;;;21.28;42.06;100415.53;5069095;28;20036;-20
2021/10/22 10:49:51;;;;;;;17.58;10.20;;;;;;;21.43;42.70;100411.13;5069079;28;20064;-19
2021/10/22 10:52:39;;;;;;;22.85;9.68;;;;;;;21.53;41.67;100411.03;5068693;28;20071;-20
2021/10/22 10:55:26;;;;;;;11.13;9.30;;;;;;;21.25;41.98;100405.25;5068354;28;20462;-19
2021/10/22 10:57:54;;;;;;;13.30;9.95;;;;;;;21.77;42.78;100402.19;5068832;28;20465;-19
2021/10/22 11:00:21;;;;;;;15.05;10.25;;;;;;;21.86;41.98;100386.88;5073836;28;20476;-19
2021/10/22 11:03:02;;;;;;;13.75;10.27;;;;;;;22.02;40.74;100391.06;5075178;28;20490;-19
2021/10/22 11:05:50;;;;;;;16.13;10.07;;;;;;;22.35;42.04;100393.19;5075509;28;20549;-19
2021/10/22 11:08:19;;;;;;;14.70;10.15;;;;;;;22.31;41.52;100376.63;5075515;28;20037;-20
2021/10/22 11:10:56;;;;;;;14.40;9.77;;;;;;;22.53;40.21;100378.03;5075433;28;20028;-20
2021/10/22 11:13:22;;;;;;;15.38;10.82;;;;;;;22.25;41.87;100373.19;5075320;28;20041;-19
2021/10/22 11:15:48;;;;;;;12.52;9.75;;;;;;;22.78;40.11;100368.72;5057333;28;20047;-19
2021/10/22 11:18:13;;;;;;;13.50;9.95;;;;;;;23.19;39.67;100360.81;5057449;28;20032;-20
2021/10/22 11:20:39;;;;;;;12.57;9.23;;;;;;;23.16;37.73;100357.88;5057218;28;20020;-19
2021/10/22 11:23:05;;;;;;;12.23;9.85;;;;;;;23.79;37.55;100372.91;5057477;28;20043;-19